Time;durP1;ratioP1;P1;durP2;ratioP2;P2;SDS_P1;SDS_P2;PMS_P1;PMS_P2;Temp;Humidity;BMP_temperature;BMP_pressure;BME280_temperature;BME280_humidity;BME280_pressure;Samples;Min_cycle;Max_cycle;Signal;HPM_P1;HPM_P2
2023/12/22 00:00:11;;;;;;;8.80;1.70;;;4.90;99.90;;;;;;5033646;28;20659;-80
2023/12/22 00:02:58;;;;;;;8.83;2.00;;;4.90;99.90;;;;;;5033312;28;20194;-80
2023/12/22 00:05:46;;;;;;;8.50;2.30;;;4.90;99.90;;;;;;4985475;28;1384466;-80
2023/12/22 00:08:33;;;;;;;10.73;1.97;;;4.90;99.90;;;;;;5032879;28;20191;-80
2023/12/22 00:11:20;;;;;;;10.50;2.07;;;4.90;99.90;;;;;;5035120;28;20207;-80
2023/12/22 00:14:08;;;;;;;6.20;1.70;;;4.90;99.90;;;;;;5032783;28;20189;-80
2023/12/22 00:16:55;;;;;;;7.80;1.90;;;4.90;99.90;;;;;;5034460;28;20281;-81
2023/12/22 00:19:43;;;;;;;7.17;2.00;;;4.90;99.90;;;;;;5033857;28;20284;-80
2023/12/22 00:22:30;;;;;;;10.60;1.93;;;4.90;99.90;;;;;;5033672;28;20660;-80
2023/12/22 00:25:18;;;;;;;8.73;1.73;;;4.90;99.90;;;;;;5032740;28;20611;-80
2023/12/22 00:28:05;;;;;;;7.60;1.80;;;4.90;99.90;;;;;;5033616;28;20674;-80
2023/12/22 00:30:53;;;;;;;8.43;1.97;;;4.90;99.90;;;;;;5032969;28;20199;-79
2023/12/22 00:33:40;;;;;;;6.07;1.80;;;4.90;99.90;;;;;;5033411;28;20279;-79
2023/12/22 00:36:28;;;;;;;5.67;1.90;;;4.90;99.90;;;;;;5031307;28;20207;-79
2023/12/22 00:39:15;;;;;;;9.07;2.00;;;4.90;99.90;;;;;;5033910;28;20231;-79
2023/12/22 00:42:04;;;;;;;5.60;1.90;;;4.90;99.90;;;;;;5033530;28;20250;-80
2023/12/22 00:44:51;;;;;;;7.67;1.97;;;4.90;99.90;;;;;;5032508;28;20225;-81
2023/12/22 00:47:38;;;;;;;7.57;1.73;;;4.90;99.90;;;;;;5033257;28;20201;-80
2023/12/22 00:50:26;;;;;;;8.10;1.97;;;4.90;99.90;;;;;;5032097;28;20234;-80
2023/12/22 00:53:14;;;;;;;5.73;1.83;;;4.90;99.90;;;;;;5032629;28;20666;-80
2023/12/22 00:56:02;;;;;;;11.67;2.13;;;4.80;99.90;;;;;;5033587;28;20694;-80
2023/12/22 00:58:50;;;;;;;8.10;2.07;;;4.80;99.90;;;;;;5032390;28;20195;-81
2023/12/22 01:01:48;;;;;;;8.37;2.03;;;4.80;99.90;;;;;;5034061;28;20203;-80
2023/12/22 01:04:36;;;;;;;7.13;2.13;;;4.80;99.90;;;;;;5032096;28;20235;-80
2023/12/22 01:07:25;;;;;;;6.80;1.90;;;4.70;99.90;;;;;;5031824;28;20194;-80
2023/12/22 01:10:13;;;;;;;7.93;2.17;;;4.70;99.90;;;;;;5031752;28;20221;-81
2023/12/22 01:13:00;;;;;;;8.33;1.70;;;4.70;99.90;;;;;;5032748;28;20204;-80
2023/12/22 01:15:47;;;;;;;10.17;2.10;;;4.70;99.90;;;;;;5031722;28;20645;-80
2023/12/22 01:18:35;;;;;;;4.30;2.00;;;4.60;99.90;;;;;;5032399;28;20202;-80
2023/12/22 01:21:23;;;;;;;8.80;1.80;;;4.50;99.90;;;;;;5033932;28;20224;-80
2023/12/22 01:24:10;;;;;;;8.40;1.83;;;4.60;99.90;;;;;;5032603;28;20245;-80
2023/12/22 01:26:59;;;;;;;8.30;1.77;;;4.60;99.90;;;;;;5032401;28;20698;-80
2023/12/22 01:29:46;;;;;;;8.17;2.20;;;4.60;99.90;;;;;;5031988;28;20203;-80
2023/12/22 01:32:36;;;;;;;9.37;1.93;;;4.50;99.90;;;;;;5033666;28;20241;-80
2023/12/22 01:35:24;;;;;;;9.70;2.03;;;4.60;99.90;;;;;;5032872;28;20206;-81
2023/12/22 01:38:11;;;;;;;7.80;2.17;;;4.50;99.90;;;;;;5032908;28;20281;-81
2023/12/22 01:40:59;;;;;;;11.03;2.07;;;4.50;99.90;;;;;;5032272;28;20564;-80
2023/12/22 01:43:46;;;;;;;7.27;2.03;;;4.50;99.90;;;;;;5033391;28;20256;-81
2023/12/22 01:46:35;;;;;;;12.57;2.23;;;4.50;99.90;;;;;;5032186;28;20230;-81
2023/12/22 01:49:25;;;;;;;9.17;2.33;;;4.50;99.90;;;;;;5032145;28;20665;-80
2023/12/22 01:52:12;;;;;;;10.47;2.10;;;4.50;99.90;;;;;;5031098;28;20210;-81
2023/12/22 01:55:00;;;;;;;12.03;2.13;;;4.50;99.90;;;;;;5031102;28;20196;-81
2023/12/22 01:57:49;;;;;;;11.93;2.10;;;4.50;99.90;;;;;;5031466;28;20749;-81
2023/12/22 02:00:37;;;;;;;12.73;2.20;;;4.50;99.90;;;;;;5032455;28;20291;-81
2023/12/22 02:03:25;;;;;;;11.10;2.17;;;4.50;99.90;;;;;;5029918;28;20287;-81
2023/12/22 02:06:13;;;;;;;12.80;2.50;;;4.50;99.90;;;;;;5032935;28;20233;-81
2023/12/22 02:09:01;;;;;;;9.03;2.43;;;4.50;99.90;;;;;;5032279;28;20193;-81
2023/12/22 02:11:49;;;;;;;10.07;2.13;;;4.50;99.90;;;;;;5031830;28;20218;-81
2023/12/22 02:14:36;;;;;;;12.57;2.40;;;4.50;99.90;;;;;;5032042;28;20228;-80
2023/12/22 02:17:33;;;;;;;10.83;2.30;;;4.50;99.90;;;;;;5031823;28;20203;-81
2023/12/22 02:20:21;;;;;;;10.03;2.50;;;4.50;99.90;;;;;;5030846;28;20241;-81
2023/12/22 02:23:09;;;;;;;8.23;2.17;;;4.50;99.90;;;;;;5033031;28;21084;-81
2023/12/22 02:26:22;;;;;;;10.93;2.20;;;4.50;99.90;;;;;;5030720;28;20219;-81
2023/12/22 02:29:14;;;;;;;10.87;2.73;;;4.60;99.90;;;;;;5032094;28;20511;-81
2023/12/22 02:32:11;;;;;;;9.60;2.20;;;4.70;99.90;;;;;;5031164;28;20261;-80
2023/12/22 02:35:03;;;;;;;10.83;2.20;;;4.70;99.90;;;;;;5032794;28;20211;-81
2023/12/22 02:37:52;;;;;;;11.30;2.20;;;4.70;99.90;;;;;;5029632;28;20202;-81
2023/12/22 02:40:41;;;;;;;12.10;2.20;;;4.70;99.90;;;;;;5032602;28;20201;-81
2023/12/22 02:43:29;;;;;;;10.07;2.23;;;4.80;99.90;;;;;;5030206;28;20290;-82
2023/12/22 02:46:16;;;;;;;10.33;2.20;;;4.80;99.90;;;;;;5030608;28;20243;-81
2023/12/22 02:49:04;;;;;;;11.80;2.43;;;4.70;99.90;;;;;;5032197;28;20222;-81
2023/12/22 02:51:52;;;;;;;12.73;2.40;;;4.70;99.90;;;;;;5031749;28;20217;-81
2023/12/22 02:54:40;;;;;;;9.37;2.20;;;4.70;99.90;;;;;;5031616;28;20191;-81
2023/12/22 02:57:27;;;;;;;9.90;2.80;;;4.60;99.90;;;;;;5034057;28;20223;-81
2023/12/22 03:00:15;;;;;;;7.73;2.40;;;4.60;99.90;;;;;;5034250;28;20203;-81
2023/12/22 03:03:03;;;;;;;8.40;2.20;;;4.70;99.90;;;;;;5034053;28;20244;-80
2023/12/22 03:05:50;;;;;;;10.80;2.53;;;4.70;99.90;;;;;;5032270;28;20258;-80
2023/12/22 03:08:38;;;;;;;8.10;2.03;;;4.70;99.90;;;;;;5033491;28;20205;-81
2023/12/22 03:11:25;;;;;;;7.73;2.17;;;4.70;99.90;;;;;;5034492;28;20272;-82
2023/12/22 03:14:12;;;;;;;8.47;2.00;;;4.70;99.90;;;;;;5034945;28;20304;-81
2023/12/22 03:17:01;;;;;;;7.83;1.90;;;4.80;99.90;;;;;;5034889;28;20198;-81
2023/12/22 03:19:48;;;;;;;10.70;2.20;;;4.80;99.90;;;;;;5033609;28;20203;-81
2023/12/22 03:22:36;;;;;;;9.87;2.57;;;4.80;99.90;;;;;;5033814;28;20202;-81
2023/12/22 03:25:24;;;;;;;11.97;2.10;;;4.80;99.90;;;;;;5034054;28;20703;-81
2023/12/22 03:28:12;;;;;;;13.03;2.27;;;4.70;99.90;;;;;;5032556;28;20652;-80
2023/12/22 03:31:00;;;;;;;7.63;2.40;;;4.60;99.90;;;;;;5034553;28;20723;-81
2023/12/22 03:33:47;;;;;;;8.80;2.47;;;4.50;99.90;;;;;;5034597;28;20203;-80
2023/12/22 03:36:35;;;;;;;10.13;2.53;;;4.50;99.90;;;;;;5033541;28;20365;-81
2023/12/22 03:39:22;;;;;;;11.03;2.27;;;4.40;99.90;;;;;;5035026;28;20254;-81
2023/12/22 03:42:10;;;;;;;8.10;2.30;;;4.40;99.90;;;;;;5035038;28;20216;-81
2023/12/22 03:44:57;;;;;;;9.23;2.30;;;4.30;99.90;;;;;;5033261;28;20562;-81
2023/12/22 03:47:45;;;;;;;12.03;2.50;;;4.30;99.90;;;;;;5033909;28;20221;-81
2023/12/22 03:50:33;;;;;;;10.97;2.57;;;4.20;99.90;;;;;;5033275;28;20418;-81
2023/12/22 03:53:20;;;;;;;11.93;2.43;;;4.20;99.90;;;;;;5033940;28;20206;-82
2023/12/22 03:56:11;;;;;;;10.13;2.70;;;4.20;99.90;;;;;;5033314;28;20671;-81
2023/12/22 03:58:59;;;;;;;10.00;2.70;;;4.20;99.90;;;;;;5033162;28;20281;-81
2023/12/22 04:01:52;;;;;;;11.27;2.90;;;4.20;99.90;;;;;;5034149;28;20628;-81
2023/12/22 04:04:40;;;;;;;12.20;2.47;;;4.20;99.90;;;;;;5032893;28;20233;-81
2023/12/22 04:07:27;;;;;;;13.80;2.50;;;4.10;99.90;;;;;;5032235;28;20193;-81
2023/12/22 04:10:17;;;;;;;13.50;2.33;;;4.10;99.90;;;;;;5033391;28;20568;-81
2023/12/22 04:13:05;;;;;;;8.77;2.40;;;4.20;99.90;;;;;;5032866;28;20197;-81
2023/12/22 04:15:52;;;;;;;11.40;2.57;;;4.20;99.90;;;;;;5033453;28;20596;-81
2023/12/22 04:18:40;;;;;;;11.37;2.60;;;4.20;99.90;;;;;;5033859;28;20257;-81
2023/12/22 04:21:27;;;;;;;9.10;2.53;;;4.20;99.90;;;;;;5033790;28;20207;-80
2023/12/22 04:24:15;;;;;;;9.63;2.63;;;4.20;99.90;;;;;;5033806;28;20270;-81
2023/12/22 04:27:03;;;;;;;13.93;2.90;;;4.20;99.90;;;;;;5033203;28;20232;-81
2023/12/22 04:29:50;;;;;;;15.03;2.70;;;4.10;99.90;;;;;;5032370;28;20205;-81
2023/12/22 04:32:38;;;;;;;12.97;2.30;;;4.10;99.90;;;;;;5033998;28;20313;-81
2023/12/22 04:35:25;;;;;;;10.33;2.60;;;4.10;99.90;;;;;;5034098;28;20634;-81
2023/12/22 04:38:13;;;;;;;9.73;2.50;;;4.10;99.90;;;;;;5033140;28;20243;-81
2023/12/22 04:41:00;;;;;;;8.47;2.13;;;4.10;99.90;;;;;;5031376;28;20219;-81
2023/12/22 04:43:48;;;;;;;13.90;3.50;;;4.10;99.90;;;;;;5033410;28;20233;-81
2023/12/22 04:46:35;;;;;;;10.23;2.43;;;4.20;99.90;;;;;;5033228;28;20689;-81
2023/12/22 04:49:22;;;;;;;12.80;2.60;;;4.10;99.90;;;;;;5032553;28;20200;-81
2023/12/22 04:52:11;;;;;;;8.43;2.47;;;4.10;99.90;;;;;;5032783;28;20207;-80
2023/12/22 04:54:59;;;;;;;12.13;2.50;;;3.80;99.90;;;;;;5033054;28;20210;-80
2023/12/22 04:57:47;;;;;;;11.30;2.83;;;3.60;99.90;;;;;;5033636;28;20227;-81
2023/12/22 05:00:34;;;;;;;9.17;2.73;;;3.40;99.90;;;;;;5032993;28;20197;-81
2023/12/22 05:03:22;;;;;;;6.10;2.50;;;3.40;99.90;;;;;;5033043;28;20268;-81
2023/12/22 05:06:09;;;;;;;8.70;2.83;;;3.30;99.90;;;;;;5031572;28;20237;-81
2023/12/22 05:08:57;;;;;;;11.43;2.57;;;3.20;99.90;;;;;;5032916;28;20204;-81
2023/12/22 05:11:44;;;;;;;9.27;2.60;;;2.90;99.90;;;;;;5032164;28;20250;-80
2023/12/22 05:14:31;;;;;;;9.37;2.47;;;2.60;99.90;;;;;;5032232;28;20215;-80
2023/12/22 05:17:19;;;;;;;9.27;2.50;;;2.50;99.90;;;;;;5033353;28;20202;-80
2023/12/22 05:20:09;;;;;;;13.13;2.97;;;2.50;99.90;;;;;;5031245;28;20206;-80
2023/12/22 05:22:57;;;;;;;13.90;3.13;;;2.60;99.90;;;;;;5031534;28;20189;-81
2023/12/22 05:25:44;;;;;;;13.77;3.40;;;2.70;99.90;;;;;;5031399;28;20691;-80
2023/12/22 05:28:32;;;;;;;11.10;2.77;;;2.70;99.90;;;;;;5033367;28;20198;-79
2023/12/22 05:31:19;;;;;;;10.23;2.67;;;2.80;99.90;;;;;;5033289;28;20193;-81
2023/12/22 05:34:10;;;;;;;11.70;2.70;;;2.80;99.90;;;;;;5031828;28;20222;-81
2023/12/22 05:36:57;;;;;;;13.63;2.93;;;2.80;99.90;;;;;;5032428;28;20202;-81
2023/12/22 05:39:45;;;;;;;14.73;2.80;;;2.90;99.90;;;;;;5032193;28;20202;-81
2023/12/22 05:42:33;;;;;;;10.93;2.50;;;2.90;99.90;;;;;;5032531;28;20216;-82
2023/12/22 05:45:20;;;;;;;17.03;2.50;;;3.00;99.90;;;;;;5031477;28;20202;-82
2023/12/22 05:48:08;;;;;;;10.90;2.63;;;3.10;99.90;;;;;;5032458;28;20356;-82
2023/12/22 05:50:58;;;;;;;14.33;2.77;;;3.10;99.90;;;;;;5030933;28;20201;-82
2023/12/22 05:53:46;;;;;;;12.17;3.20;;;3.10;99.90;;;;;;5030360;28;20577;-82
2023/12/22 05:56:33;;;;;;;11.20;2.97;;;3.10;99.90;;;;;;5031434;28;20215;-83
2023/12/22 05:59:21;;;;;;;15.23;3.40;;;3.10;99.90;;;;;;5031334;28;20721;-81
2023/12/22 06:02:08;;;;;;;16.60;2.70;;;3.00;99.90;;;;;;5032151;28;20200;-82
2023/12/22 06:04:56;;;;;;;9.50;2.63;;;3.00;99.90;;;;;;5031977;28;20235;-82
2023/12/22 06:07:43;;;;;;;13.00;2.40;;;3.00;99.90;;;;;;5031577;28;20305;-82
2023/12/22 06:10:31;;;;;;;16.13;2.67;;;3.00;99.90;;;;;;5032672;28;20267;-82
2023/12/22 06:13:19;;;;;;;11.83;2.70;;;3.10;99.90;;;;;;5031397;28;20195;-82
2023/12/22 06:16:11;;;;;;;16.47;2.80;;;3.10;99.90;;;;;;5031445;28;20212;-82
2023/12/22 06:18:58;;;;;;;13.33;2.73;;;3.10;99.90;;;;;;5033497;28;20716;-81
2023/12/22 06:21:46;;;;;;;13.60;3.00;;;3.10;99.90;;;;;;5031050;28;20615;-81
2023/12/22 06:24:35;;;;;;;12.27;2.60;;;3.20;99.90;;;;;;5032445;28;20208;-82
2023/12/22 06:27:23;;;;;;;12.33;2.60;;;3.20;99.90;;;;;;5032919;28;20267;-81
2023/12/22 06:30:11;;;;;;;13.70;2.90;;;3.30;99.90;;;;;;5030925;28;20191;-83
2023/12/22 06:32:58;;;;;;;14.80;2.90;;;3.30;99.90;;;;;;5037385;28;20197;-82
2023/12/22 06:35:46;;;;;;;9.67;2.13;;;3.40;99.90;;;;;;5038603;28;20197;-82
2023/12/22 06:38:34;;;;;;;10.30;2.40;;;3.40;99.90;;;;;;5037813;28;20197;-81
2023/12/22 06:41:22;;;;;;;14.03;2.50;;;3.50;99.90;;;;;;5036875;28;20316;-81
2023/12/22 06:44:14;;;;;;;9.37;1.87;;;3.60;99.90;;;;;;5037334;28;20200;-81
2023/12/22 06:47:02;;;;;;;13.70;2.73;;;3.60;99.90;;;;;;5037363;28;20221;-82
2023/12/22 06:49:49;;;;;;;10.53;2.33;;;3.70;99.90;;;;;;5035617;28;20193;-80
2023/12/22 06:52:37;;;;;;;8.10;2.13;;;3.60;99.90;;;;;;5034219;28;20227;-81
2023/12/22 06:55:24;;;;;;;11.60;2.77;;;3.70;99.90;;;;;;5033909;28;20197;-81
2023/12/22 06:58:12;;;;;;;15.17;2.60;;;3.70;99.90;;;;;;5034498;28;20215;-81
2023/12/22 07:00:59;;;;;;;16.67;2.53;;;3.70;99.90;;;;;;5036089;28;20664;-81
2023/12/22 07:03:48;;;;;;;10.07;1.93;;;3.80;99.90;;;;;;5036222;28;20619;-81
2023/12/22 07:06:35;;;;;;;8.07;2.20;;;3.80;99.90;;;;;;5035472;28;20236;-81
2023/12/22 07:09:23;;;;;;;9.23;2.17;;;3.70;99.90;;;;;;5020075;28;20198;-81
2023/12/22 07:12:11;;;;;;;13.83;2.20;;;3.70;99.90;;;;;;5034968;28;20224;-81
2023/12/22 07:14:58;;;;;;;11.83;2.57;;;3.70;99.90;;;;;;5035535;28;20355;-81
2023/12/22 07:17:46;;;;;;;9.80;2.17;;;3.70;99.90;;;;;;5033959;28;20199;-81
2023/12/22 07:20:35;;;;;;;13.43;2.23;;;3.60;99.90;;;;;;5035374;28;20253;-81
2023/12/22 07:23:22;;;;;;;10.67;2.57;;;3.60;99.90;;;;;;5034856;28;20237;-81
2023/12/22 07:26:10;;;;;;;13.33;2.43;;;3.60;99.90;;;;;;5035192;28;20275;-81
2023/12/22 07:28:58;;;;;;;12.20;2.20;;;3.60;99.90;;;;;;5034718;28;20332;-81
2023/12/22 07:31:45;;;;;;;7.77;1.80;;;3.60;99.90;;;;;;5035296;28;20819;-80
2023/12/22 07:34:33;;;;;;;8.33;1.80;;;3.60;99.90;;;;;;5034050;28;20220;-81
2023/12/22 07:37:24;;;;;;;7.50;1.93;;;3.70;99.90;;;;;;5032948;28;20207;-80
2023/12/22 07:40:12;;;;;;;8.40;1.90;;;3.70;99.90;;;;;;5033489;28;20202;-81
2023/12/22 07:43:00;;;;;;;9.17;2.27;;;3.80;99.90;;;;;;5033572;28;20202;-81
2023/12/22 07:45:50;;;;;;;7.60;1.83;;;3.70;99.90;;;;;;5034380;28;20785;-81
2023/12/22 07:48:38;;;;;;;11.70;2.40;;;3.70;99.90;;;;;;5032794;28;20208;-81
2023/12/22 07:51:26;;;;;;;7.50;1.80;;;3.70;99.90;;;;;;5034254;28;20203;-81
2023/12/22 07:54:13;;;;;;;9.67;2.13;;;3.70;99.90;;;;;;5033624;28;20279;-81
2023/12/22 07:57:01;;;;;;;12.87;2.20;;;3.60;99.90;;;;;;5033605;28;20217;-81
2023/12/22 07:59:49;;;;;;;7.50;1.60;;;3.60;99.90;;;;;;5033173;28;20199;-81
2023/12/22 08:02:36;;;;;;;8.03;1.80;;;3.70;99.90;;;;;;5034877;28;20198;-81
2023/12/22 08:05:25;;;;;;;8.53;2.10;;;3.50;99.90;;;;;;5032386;28;20471;-81
2023/12/22 08:08:12;;;;;;;12.30;1.83;;;3.50;99.90;;;;;;5032943;28;20221;-81
2023/12/22 08:10:59;;;;;;;9.87;2.27;;;3.60;99.90;;;;;;5034475;28;20218;-81
2023/12/22 08:13:47;;;;;;;9.87;2.20;;;3.80;99.90;;;;;;5032868;28;20198;-82
2023/12/22 08:16:35;;;;;;;12.67;2.20;;;3.90;99.90;;;;;;5033838;28;20791;-81
2023/12/22 08:19:22;;;;;;;9.93;1.73;;;3.90;99.90;;;;;;5033825;28;20318;-81
2023/12/22 08:22:13;;;;;;;10.27;1.90;;;3.90;99.90;;;;;;5033203;28;20212;-81
2023/12/22 08:25:01;;;;;;;16.47;2.27;;;3.90;99.90;;;;;;5033692;28;20862;-81
2023/12/22 08:27:48;;;;;;;7.97;1.80;;;4.00;99.90;;;;;;5034033;28;20223;-82
2023/12/22 08:30:36;;;;;;;13.17;2.43;;;3.90;99.90;;;;;;5034171;28;20244;-82
2023/12/22 08:33:24;;;;;;;10.67;2.00;;;4.10;99.90;;;;;;5034028;28;20191;-82
2023/12/22 08:36:11;;;;;;;10.37;2.10;;;3.90;99.90;;;;;;5032422;28;20326;-82
2023/12/22 08:38:59;;;;;;;10.27;2.40;;;3.80;99.90;;;;;;5032922;28;20235;-82
2023/12/22 08:41:47;;;;;;;10.80;1.80;;;3.70;99.90;;;;;;5033536;28;20214;-82
2023/12/22 08:44:36;;;;;;;8.73;1.87;;;3.60;99.90;;;;;;5033859;28;20199;-81
2023/12/22 08:47:25;;;;;;;7.33;1.93;;;3.60;99.90;;;;;;5032223;28;20314;-82
2023/12/22 08:50:13;;;;;;;7.33;2.00;;;3.50;99.90;;;;;;5034321;28;20784;-81
2023/12/22 08:53:01;;;;;;;7.90;2.20;;;3.50;99.90;;;;;;5031480;28;20191;-82
2023/12/22 08:55:48;;;;;;;8.07;2.10;;;3.40;99.90;;;;;;5032157;28;20301;-82
2023/12/22 08:58:36;;;;;;;12.17;2.10;;;3.40;99.90;;;;;;5033001;28;20197;-82
2023/12/22 09:01:24;;;;;;;15.60;2.27;;;3.30;99.90;;;;;;5032998;28;20202;-82
2023/12/22 09:04:11;;;;;;;7.00;2.00;;;3.30;99.90;;;;;;5032798;28;20571;-82
2023/12/22 09:06:59;;;;;;;8.83;1.97;;;3.40;99.90;;;;;;4993976;28;20723;-81
2023/12/22 09:09:47;;;;;;;11.80;2.13;;;3.30;99.90;;;;;;4993505;28;20239;-82
2023/12/22 09:12:34;;;;;;;12.00;2.40;;;3.40;99.90;;;;;;5019634;28;20500;-82
2023/12/22 09:15:22;;;;;;;8.77;2.03;;;3.40;99.90;;;;;;4993102;28;20268;-81
2023/12/22 09:18:09;;;;;;;11.90;2.40;;;3.50;99.90;;;;;;4993894;28;20198;-81
2023/12/22 09:20:57;;;;;;;9.37;1.80;;;3.50;99.90;;;;;;4993278;28;20201;-82
2023/12/22 09:23:46;;;;;;;9.93;1.87;;;3.60;99.90;;;;;;4993264;28;20648;-81
2023/12/22 09:26:34;;;;;;;10.30;2.23;;;3.70;99.90;;;;;;4992794;28;20215;-82
2023/12/22 09:29:21;;;;;;;11.57;2.40;;;3.70;99.90;;;;;;4993942;28;20203;-82
2023/12/22 09:32:09;;;;;;;11.47;2.23;;;3.70;99.90;;;;;;5019494;28;20230;-82
2023/12/22 09:34:58;;;;;;;9.37;2.53;;;3.70;99.90;;;;;;4993653;28;20564;-82
2023/12/22 09:37:46;;;;;;;7.53;2.23;;;3.80;99.90;;;;;;4993015;28;20199;-82
2023/12/22 09:40:36;;;;;;;9.57;2.20;;;3.90;99.90;;;;;;4993589;28;20210;-81
2023/12/22 09:43:23;;;;;;;9.53;1.80;;;4.00;99.90;;;;;;4993164;28;20251;-81
2023/12/22 09:46:12;;;;;;;9.93;1.80;;;4.00;99.90;;;;;;4993044;28;20201;-81
2023/12/22 09:49:00;;;;;;;8.70;2.00;;;4.10;99.90;;;;;;4991951;28;20198;-82
2023/12/22 09:51:50;;;;;;;9.13;1.90;;;4.20;99.90;;;;;;4992388;28;20193;-81
2023/12/22 09:54:38;;;;;;;10.93;2.27;;;4.20;99.90;;;;;;4992830;28;20335;-82
2023/12/22 09:57:26;;;;;;;9.10;1.90;;;4.40;99.90;;;;;;5018763;28;20225;-81
2023/12/22 10:00:16;;;;;;;8.57;2.00;;;4.40;99.90;;;;;;4993295;28;20200;-82
2023/12/22 10:03:06;;;;;;;7.47;2.00;;;4.40;99.90;;;;;;5018832;28;20294;-81
2023/12/22 10:05:54;;;;;;;7.83;2.00;;;4.40;99.90;;;;;;5021478;28;20233;-82
2023/12/22 10:08:41;;;;;;;8.60;2.00;;;4.50;99.90;;;;;;5036836;28;20224;-82
2023/12/22 10:11:31;;;;;;;6.87;1.80;;;4.40;99.90;;;;;;5036225;28;20225;-82
2023/12/22 10:14:22;;;;;;;8.37;2.00;;;4.30;99.90;;;;;;5036561;28;20202;-81
2023/12/22 10:17:09;;;;;;;8.87;2.00;;;4.20;99.90;;;;;;5035998;28;20200;-82
2023/12/22 10:19:57;;;;;;;8.97;2.20;;;4.10;99.90;;;;;;5036526;28;20290;-81
2023/12/22 10:22:44;;;;;;;5.10;1.30;;;4.10;99.90;;;;;;5035556;28;20202;-80
2023/12/22 10:25:32;;;;;;;3.67;1.00;;;2.70;99.90;;;;;;5034711;28;20203;-80
2023/12/22 10:28:24;;;;;;;1.63;0.80;;;2.00;99.90;;;;;;5020757;28;20248;-79
2023/12/22 10:31:12;;;;;;;2.03;0.77;;;1.30;99.90;;;;;;5036565;28;20195;-80
2023/12/22 10:33:59;;;;;;;2.63;1.13;;;0.70;99.90;;;;;;5035715;28;20203;-79
2023/12/22 10:36:46;;;;;;;4.47;1.00;;;0.40;99.90;;;;;;5034116;28;20200;-80
2023/12/22 10:39:36;;;;;;;2.30;0.97;;;0.30;99.90;;;;;;5034678;28;20207;-79
2023/12/22 10:42:24;;;;;;;1.97;0.90;;;0.20;99.90;;;;;;5035541;28;20222;-79
2023/12/22 10:45:13;;;;;;;2.10;0.97;;;0.20;99.90;;;;;;5035572;28;20189;-79
2023/12/22 10:48:03;;;;;;;1.23;0.80;;;0.20;99.90;;;;;;5035417;28;20224;-80
2023/12/22 10:50:50;;;;;;;1.67;0.90;;;0.20;99.90;;;;;;5035502;28;20281;-79
2023/12/22 10:53:41;;;;;;;2.50;1.03;;;0.20;99.90;;;;;;5035738;28;20199;-79
2023/12/22 10:56:29;;;;;;;1.07;0.97;;;0.20;99.90;;;;;;5035781;28;20215;-79
2023/12/22 10:59:18;;;;;;;1.83;1.00;;;0.20;99.90;;;;;;5035311;28;20199;-79
2023/12/22 11:02:11;;;;;;;1.37;0.80;;;0.20;99.90;;;;;;5036466;28;20188;-80
2023/12/22 11:05:07;;;;;;;2.07;0.90;;;0.30;99.90;;;;;;5036210;28;20224;-79
2023/12/22 11:07:57;;;;;;;2.37;1.00;;;0.30;99.90;;;;;;5034466;28;20310;-79
2023/12/22 11:10:55;;;;;;;3.37;1.30;;;0.40;99.90;;;;;;5034010;28;20211;-79
2023/12/22 11:13:43;;;;;;;5.97;1.53;;;0.50;99.90;;;;;;5035341;28;20184;-79
2023/12/22 11:16:35;;;;;;;2.00;1.40;;;0.60;99.90;;;;;;5034203;28;20685;-78
2023/12/22 11:19:24;;;;;;;4.77;1.23;;;0.70;99.90;;;;;;5034780;28;20197;-79
2023/12/22 11:22:14;;;;;;;3.70;1.37;;;0.70;99.90;;;;;;5033233;28;20201;-78
2023/12/22 11:25:03;;;;;;;8.03;2.00;;;0.70;99.90;;;;;;5034877;28;20564;-78
2023/12/22 11:27:53;;;;;;;4.37;1.60;;;0.80;99.90;;;;;;5035979;28;20217;-79
2023/12/22 11:30:40;;;;;;;6.33;1.70;;;0.80;99.90;;;;;;5034762;28;20209;-79
2023/12/22 11:33:29;;;;;;;3.90;1.40;;;0.80;99.90;;;;;;5035260;28;20313;-78
2023/12/22 11:36:18;;;;;;;3.33;1.90;;;1.00;99.90;;;;;;5020642;28;20371;-78
2023/12/22 11:39:06;;;;;;;7.57;2.10;;;1.10;99.90;;;;;;5033507;28;20283;-78
2023/12/22 11:41:54;;;;;;;7.87;1.67;;;1.20;99.90;;;;;;5033911;28;20304;-78
2023/12/22 11:44:42;;;;;;;7.80;1.70;;;1.40;99.90;;;;;;5035065;28;20214;-78
2023/12/22 11:47:29;;;;;;;5.67;1.70;;;1.70;99.90;;;;;;5034448;28;20220;-78
2023/12/22 11:50:43;;;;;;;4.70;1.67;;;1.90;99.90;;;;;;5034350;28;20219;-78
2023/12/22 11:53:34;;;;;;;2.80;1.67;;;2.20;99.90;;;;;;5034337;28;20338;-78
2023/12/22 11:56:24;;;;;;;5.77;1.90;;;2.20;99.90;;;;;;5033119;28;20218;-78
2023/12/22 11:59:11;;;;;;;5.87;2.03;;;2.10;99.90;;;;;;5034125;28;20293;-78
2023/12/22 12:02:02;;;;;;;6.77;2.00;;;2.10;99.90;;;;;;5035296;28;20202;-78
2023/12/22 12:04:57;;;;;;;4.03;1.77;;;2.00;99.90;;;;;;5035111;28;20599;-78
2023/12/22 12:07:50;;;;;;;6.47;2.10;;;1.90;99.90;;;;;;5034821;28;20581;-80
2023/12/22 12:10:54;;;;;;;6.33;1.90;;;1.80;99.90;;;;;;5032916;28;20279;-80
2023/12/22 12:13:44;;;;;;;4.90;1.80;;;1.80;99.90;;;;;;5034482;28;20278;-80
2023/12/22 12:16:32;;;;;;;5.17;2.23;;;1.80;99.90;;;;;;5032956;28;20701;-80
2023/12/22 12:19:20;;;;;;;4.87;2.10;;;1.90;99.90;;;;;;5032343;28;20200;-80
2023/12/22 12:22:08;;;;;;;5.53;1.53;;;1.90;99.90;;;;;;5033428;28;20206;-80
2023/12/22 12:24:56;;;;;;;6.00;1.90;;;1.90;99.90;;;;;;5032864;28;20192;-80
2023/12/22 12:27:44;;;;;;;6.00;2.10;;;1.80;99.90;;;;;;5033517;28;20247;-80
2023/12/22 12:30:33;;;;;;;4.57;1.90;;;1.80;99.90;;;;;;5031319;28;20444;-80
2023/12/22 12:33:21;;;;;;;8.57;2.20;;;1.80;99.90;;;;;;5033187;28;20297;-80
2023/12/22 12:36:11;;;;;;;3.90;1.80;;;1.80;99.90;;;;;;5034187;28;20193;-80
2023/12/22 12:39:08;;;;;;;6.03;1.90;;;1.70;99.90;;;;;;5033172;28;20189;-80
2023/12/22 12:41:56;;;;;;;6.93;2.37;;;1.60;99.90;;;;;;5034090;28;20263;-80
2023/12/22 12:44:45;;;;;;;6.03;1.97;;;1.70;99.90;;;;;;5033312;28;20209;-80
2023/12/22 12:47:33;;;;;;;7.87;2.00;;;1.70;99.90;;;;;;5033876;28;20216;-80
2023/12/22 12:50:25;;;;;;;7.57;1.97;;;1.70;99.90;;;;;;5033272;28;20223;-80
2023/12/22 12:53:12;;;;;;;6.03;1.90;;;1.70;99.90;;;;;;5033574;28;20212;-80
2023/12/22 12:56:02;;;;;;;6.20;2.00;;;1.70;99.90;;;;;;5032173;28;20264;-80
2023/12/22 12:58:49;;;;;;;6.40;1.90;;;1.70;99.90;;;;;;5033146;28;20622;-79
2023/12/22 13:01:41;;;;;;;9.50;2.10;;;1.60;99.90;;;;;;5031923;28;20205;-79
2023/12/22 13:04:38;;;;;;;5.90;1.90;;;1.60;99.90;;;;;;5032773;28;20575;-80
2023/12/22 13:07:26;;;;;;;4.37;2.10;;;1.50;99.90;;;;;;5032306;28;20209;-79
2023/12/22 13:10:24;;;;;;;8.50;2.30;;;1.50;99.90;;;;;;5033103;28;20215;-79
2023/12/22 13:13:12;;;;;;;6.97;2.20;;;1.40;99.90;;;;;;5032165;28;20197;-80
2023/12/22 13:16:00;;;;;;;8.57;2.17;;;1.40;99.90;;;;;;5033746;28;20253;-79
2023/12/22 13:18:48;;;;;;;6.47;2.37;;;1.30;99.90;;;;;;5033402;28;20198;-79
2023/12/22 13:21:36;;;;;;;6.40;2.57;;;1.30;99.90;;;;;;5031174;28;20203;-80
2023/12/22 13:24:25;;;;;;;8.10;2.73;;;1.30;99.90;;;;;;5032375;28;20192;-79
2023/12/22 13:27:15;;;;;;;7.53;2.60;;;1.30;99.90;;;;;;5032793;28;20266;-79
2023/12/22 13:30:03;;;;;;;8.47;2.70;;;1.30;99.90;;;;;;5032311;28;20199;-78
2023/12/22 13:32:54;;;;;;;6.27;2.90;;;1.30;99.90;;;;;;5033218;28;20204;-78
2023/12/22 13:35:42;;;;;;;6.63;3.07;;;1.30;99.90;;;;;;5031004;28;20203;-79
2023/12/22 13:38:30;;;;;;;8.70;2.90;;;1.30;99.90;;;;;;5033366;28;20196;-78
2023/12/22 13:41:18;;;;;;;5.50;2.70;;;1.30;99.90;;;;;;5032710;28;20690;-78
2023/12/22 13:44:06;;;;;;;8.27;2.70;;;1.40;99.90;;;;;;5032508;28;20201;-78
2023/12/22 13:46:54;;;;;;;8.13;2.80;;;1.40;99.90;;;;;;5032457;28;20651;-78
2023/12/22 13:49:42;;;;;;;7.67;3.00;;;1.40;99.90;;;;;;5032299;28;20277;-78
2023/12/22 13:52:37;;;;;;;6.87;3.10;;;1.40;99.90;;;;;;5033449;28;20658;-79
2023/12/22 13:55:25;;;;;;;5.00;2.87;;;1.40;99.90;;;;;;5031899;28;20622;-79
2023/12/22 13:58:12;;;;;;;7.77;2.90;;;1.40;99.90;;;;;;5031615;28;20202;-79
2023/12/22 14:01:14;;;;;;;6.37;2.70;;;1.40;99.90;;;;;;5032819;28;20199;-79
2023/12/22 14:04:03;;;;;;;6.47;2.90;;;1.30;99.90;;;;;;5032742;28;20228;-79
2023/12/22 14:06:50;;;;;;;8.37;2.97;;;1.40;99.90;;;;;;5031073;28;20265;-79
2023/12/22 14:09:38;;;;;;;12.77;3.30;;;1.40;99.90;;;;;;5032012;28;20222;-79
2023/12/22 14:12:26;;;;;;;11.93;3.27;;;1.40;99.90;;;;;;5032044;28;20285;-79
2023/12/22 14:15:18;;;;;;;10.83;3.10;;;1.30;99.90;;;;;;5031482;28;20196;-79
2023/12/22 14:18:06;;;;;;;9.47;3.73;;;1.30;99.90;;;;;;5030917;28;20211;-79
2023/12/22 14:20:53;;;;;;;9.97;3.17;;;1.20;99.90;;;;;;5031492;28;20195;-79
2023/12/22 14:23:41;;;;;;;10.50;3.20;;;1.20;99.90;;;;;;5031466;28;20314;-79
2023/12/22 14:26:28;;;;;;;10.63;3.53;;;1.30;99.90;;;;;;5031924;28;20213;-79
2023/12/22 14:29:16;;;;;;;9.57;3.37;;;1.30;99.90;;;;;;5031348;28;20747;-79
2023/12/22 14:32:04;;;;;;;8.90;3.37;;;1.20;99.90;;;;;;5031828;28;20265;-79
2023/12/22 14:34:52;;;;;;;9.13;3.73;;;1.20;99.90;;;;;;5031374;28;20207;-79
2023/12/22 14:37:39;;;;;;;13.10;4.20;;;1.20;99.90;;;;;;5031908;28;20278;-78
2023/12/22 14:40:27;;;;;;;10.43;4.00;;;1.20;99.90;;;;;;5031812;28;20227;-78
2023/12/22 14:43:14;;;;;;;12.90;4.20;;;1.10;99.90;;;;;;5031855;28;20196;-78